QTR7L OTHH-OMDB
Flight info
| Callsign | QTR7L |
|---|---|
| Flight time | N/A |
| Altitude | 21000 |
| Route | ALSEM L305 ITBUL M677 VUTEB |
| Aircraft | A359/H-SDE2E3GHIJ3J4J5LM1ORWXY/LB1D1 |
Departure
| Time | 2026-05-06 17:30 |
|---|---|
| Airport | Hamad International Airport (OTHH) |
Arrival
| Time | N/A |
|---|---|
| Airport | Dubai International Airport (OMDB) |
| Time | Latitude | Longitude | Altitude | Speed | Heading |
|---|---|---|---|---|---|
| 2026-05-06 17:09 | 25.26658 | 51.61235 | 28 ft | 0 kts | 246° |
| 2026-05-06 17:19 | 25.26664 | 51.61250 | 16 ft | 3 kts | 246° |
| 2026-05-06 17:19 | 25.26672 | 51.61269 | 12 ft | 3 kts | 246° |
| 2026-05-06 17:20 | 25.26681 | 51.61289 | 3 ft | 3 kts | 231° |
| 2026-05-06 17:20 | 25.26695 | 51.61304 | 26 ft | 3 kts | 209° |
| 2026-05-06 17:20 | 25.26713 | 51.61312 | 26 ft | 3 kts | 188° |
| 2026-05-06 17:20 | 25.26732 | 51.61313 | 25 ft | 3 kts | 168° |
| 2026-05-06 17:21 | 25.26734 | 51.61312 | 25 ft | 0 kts | 168° |
| 2026-05-06 17:24 | 25.26722 | 51.61316 | 28 ft | 4 kts | 166° |
| 2026-05-06 17:24 | 25.26683 | 51.61327 | 28 ft | 8 kts | 163° |
| 2026-05-06 17:24 | 25.26621 | 51.61354 | 28 ft | 12 kts | 158° |
| 2026-05-06 17:25 | 25.26534 | 51.61393 | 28 ft | 16 kts | 158° |
| 2026-05-06 17:25 | 25.26426 | 51.61446 | 28 ft | 17 kts | 145° |
| 2026-05-06 17:25 | 25.26412 | 51.61560 | 28 ft | 16 kts | 66° |
| 2026-05-06 17:25 | 25.26455 | 51.61679 | 28 ft | 18 kts | 68° |
| 2026-05-06 17:26 | 25.26504 | 51.61817 | 28 ft | 21 kts | 68° |
| 2026-05-06 17:26 | 25.26560 | 51.61973 | 28 ft | 18 kts | 73° |
| 2026-05-06 17:26 | 25.26489 | 51.62061 | 28 ft | 17 kts | 157° |
| 2026-05-06 17:26 | 25.26372 | 51.62114 | 28 ft | 19 kts | 158° |
| 2026-05-06 17:27 | 25.26242 | 51.62172 | 29 ft | 21 kts | 158° |
| 2026-05-06 17:27 | 25.26096 | 51.62236 | 29 ft | 23 kts | 158° |
| 2026-05-06 17:27 | 25.25940 | 51.62304 | 29 ft | 26 kts | 158° |
| 2026-05-06 17:27 | 25.25765 | 51.62380 | 28 ft | 28 kts | 158° |
| 2026-05-06 17:28 | 25.25585 | 51.62459 | 28 ft | 24 kts | 158° |
| 2026-05-06 17:28 | 25.25517 | 51.62540 | 28 ft | 13 kts | 88° |
| 2026-05-06 17:28 | 25.25552 | 51.62626 | 28 ft | 12 kts | 56° |
| 2026-05-06 17:28 | 25.25603 | 51.62646 | 29 ft | 8 kts | 343° |
| 2026-05-06 17:29 | 25.25666 | 51.62618 | 28 ft | 13 kts | 338° |
| 2026-05-06 17:29 | 25.25853 | 51.62537 | 29 ft | 61 kts | 339° |
| 2026-05-06 17:29 | 25.26223 | 51.62377 | 29 ft | 110 kts | 338° |
| 2026-05-06 17:29 | 25.27511 | 51.61796 | 224 ft | 175 kts | 339° |
| 2026-05-06 17:30 | 25.28261 | 51.61451 | 750 ft | 177 kts | 339° |
| 2026-05-06 17:30 | 25.29413 | 51.60921 | 1569 ft | 183 kts | 339° |
| 2026-05-06 17:30 | 25.30607 | 51.60331 | 2051 ft | 195 kts | 337° |
| 2026-05-06 17:30 | 25.31921 | 51.59721 | 2295 ft | 215 kts | 341° |
| 2026-05-06 17:31 | 25.33410 | 51.59209 | 2602 ft | 232 kts | 351° |
| 2026-05-06 17:31 | 25.35078 | 51.59108 | 2912 ft | 248 kts | 8° |
| 2026-05-06 17:31 | 25.36716 | 51.59782 | 3280 ft | 259 kts | 37° |
| 2026-05-06 17:31 | 25.37737 | 51.61387 | 3934 ft | 259 kts | 73° |
| 2026-05-06 17:32 | 25.37827 | 51.63381 | 4562 ft | 265 kts | 96° |
| 2026-05-06 17:32 | 25.37526 | 51.65415 | 5097 ft | 271 kts | 98° |
| 2026-05-06 17:32 | 25.37250 | 51.67467 | 5662 ft | 275 kts | 96° |
| 2026-05-06 17:32 | 25.37047 | 51.69609 | 6267 ft | 278 kts | 93° |
| 2026-05-06 17:33 | 25.36910 | 51.71726 | 6806 ft | 281 kts | 92° |
| 2026-05-06 17:33 | 25.36806 | 51.73921 | 7382 ft | 284 kts | 91° |
| 2026-05-06 17:33 | 25.36723 | 51.76108 | 7961 ft | 285 kts | 90° |
| 2026-05-06 17:33 | 25.36653 | 51.78282 | 8508 ft | 289 kts | 90° |
| 2026-05-06 17:34 | 25.36581 | 51.80510 | 9080 ft | 291 kts | 90° |
| 2026-05-06 17:34 | 25.36512 | 51.82762 | 9651 ft | 294 kts | 90° |
| 2026-05-06 17:34 | 25.36442 | 51.85029 | 10182 ft | 298 kts | 90° |
| 2026-05-06 17:34 | 25.36372 | 51.87371 | 10451 ft | 311 kts | 90° |
| 2026-05-06 17:35 | 25.36308 | 51.89814 | 10682 ft | 325 kts | 89° |
| 2026-05-06 17:35 | 25.36244 | 51.92362 | 10909 ft | 337 kts | 90° |
| 2026-05-06 17:35 | 25.36175 | 51.95001 | 11130 ft | 349 kts | 90° |
| 2026-05-06 17:36 | 25.36017 | 52.00507 | 11669 ft | 364 kts | 90° |
| 2026-05-06 17:36 | 25.35928 | 52.03323 | 12062 ft | 368 kts | 90° |
| 2026-05-06 17:36 | 25.35839 | 52.06124 | 12482 ft | 369 kts | 90° |
| 2026-05-06 17:36 | 25.35748 | 52.08968 | 12886 ft | 372 kts | 90° |
| 2026-05-06 17:37 | 25.35657 | 52.11833 | 13306 ft | 374 kts | 90° |
| 2026-05-06 17:37 | 25.35565 | 52.14711 | 13711 ft | 376 kts | 90° |
| 2026-05-06 17:37 | 25.35472 | 52.17616 | 14064 ft | 378 kts | 90° |
| 2026-05-06 17:37 | 25.35481 | 52.20519 | 14403 ft | 379 kts | 83° |
| 2026-05-06 17:38 | 25.35890 | 52.23400 | 14765 ft | 380 kts | 77° |
| 2026-05-06 17:38 | 25.36433 | 52.26276 | 15125 ft | 382 kts | 76° |
| 2026-05-06 17:38 | 25.36995 | 52.29153 | 15488 ft | 384 kts | 77° |
| 2026-05-06 17:38 | 25.37556 | 52.32058 | 15840 ft | 387 kts | 77° |
| 2026-05-06 17:39 | 25.38113 | 52.34978 | 16191 ft | 390 kts | 77° |
| 2026-05-06 17:39 | 25.38672 | 52.37925 | 16530 ft | 393 kts | 77° |
| 2026-05-06 17:39 | 25.39233 | 52.40893 | 16883 ft | 395 kts | 78° |
| 2026-05-06 17:39 | 25.39795 | 52.43874 | 17227 ft | 398 kts | 78° |
| 2026-05-06 17:40 | 25.40361 | 52.46891 | 17574 ft | 401 kts | 78° |
| 2026-05-06 17:40 | 25.40929 | 52.49920 | 17902 ft | 404 kts | 78° |
| 2026-05-06 17:40 | 25.41502 | 52.52979 | 18229 ft | 406 kts | 78° |
| 2026-05-06 17:40 | 25.42068 | 52.56006 | 18501 ft | 409 kts | 78° |
| 2026-05-06 17:41 | 25.42647 | 52.59105 | 18767 ft | 412 kts | 78° |
| 2026-05-06 17:41 | 25.43228 | 52.62224 | 19061 ft | 415 kts | 78° |
| 2026-05-06 17:41 | 25.43813 | 52.65364 | 19340 ft | 418 kts | 78° |
| 2026-05-06 17:41 | 25.44402 | 52.68525 | 19633 ft | 420 kts | 78° |
| 2026-05-06 17:42 | 25.44993 | 52.71706 | 19922 ft | 423 kts | 78° |
| 2026-05-06 17:42 | 25.45587 | 52.74899 | 20216 ft | 425 kts | 78° |
| 2026-05-06 17:42 | 25.46184 | 52.78112 | 20518 ft | 427 kts | 78° |
| 2026-05-06 17:42 | 25.46782 | 52.81335 | 20800 ft | 429 kts | 78° |
| 2026-05-06 17:43 | 25.47402 | 52.84581 | 20982 ft | 435 kts | 77° |
| 2026-05-06 17:43 | 25.48130 | 52.87897 | 21015 ft | 452 kts | 75° |
| 2026-05-06 17:43 | 25.48957 | 52.91302 | 21002 ft | 463 kts | 74° |
| 2026-05-06 17:43 | 25.49833 | 52.94752 | 20998 ft | 466 kts | 74° |
| 2026-05-06 17:44 | 25.50720 | 52.98208 | 21000 ft | 467 kts | 74° |
| 2026-05-06 17:44 | 25.51598 | 53.01658 | 21001 ft | 466 kts | 74° |
| 2026-05-06 17:44 | 25.52466 | 53.05112 | 20995 ft | 466 kts | 74° |
| 2026-05-06 17:44 | 25.53328 | 53.08585 | 21011 ft | 466 kts | 75° |
| 2026-05-06 17:45 | 25.54181 | 53.12051 | 21001 ft | 466 kts | 75° |
| 2026-05-06 17:45 | 25.55018 | 53.15473 | 21002 ft | 466 kts | 75° |
| 2026-05-06 17:45 | 25.55875 | 53.18986 | 21002 ft | 466 kts | 75° |
| 2026-05-06 17:45 | 25.56721 | 53.22458 | 20997 ft | 466 kts | 75° |
| 2026-05-06 17:46 | 25.57525 | 53.25880 | 20998 ft | 465 kts | 77° |
| 2026-05-06 17:46 | 25.57983 | 53.29421 | 21000 ft | 465 kts | 85° |
| 2026-05-06 17:46 | 25.58084 | 53.33012 | 21000 ft | 466 kts | 92° |
| 2026-05-06 17:46 | 25.57711 | 53.36570 | 21000 ft | 466 kts | 100° |
| 2026-05-06 17:47 | 25.57066 | 53.40087 | 21000 ft | 465 kts | 103° |
| 2026-05-06 17:47 | 25.56352 | 53.43578 | 20995 ft | 465 kts | 103° |
| 2026-05-06 17:47 | 25.55614 | 53.47069 | 20992 ft | 465 kts | 103° |
| 2026-05-06 17:47 | 25.54870 | 53.50559 | 20997 ft | 465 kts | 104° |
| 2026-05-06 17:48 | 25.54121 | 53.54051 | 20996 ft | 465 kts | 104° |
| 2026-05-06 17:48 | 25.53370 | 53.57544 | 20991 ft | 465 kts | 104° |
| 2026-05-06 17:48 | 25.52621 | 53.61020 | 20992 ft | 465 kts | 104° |
| 2026-05-06 17:48 | 25.51871 | 53.64496 | 20994 ft | 465 kts | 104° |
| 2026-05-06 17:49 | 25.51119 | 53.67976 | 21004 ft | 465 kts | 104° |
| 2026-05-06 17:49 | 25.50365 | 53.71460 | 21002 ft | 465 kts | 104° |
| 2026-05-06 17:49 | 25.49609 | 53.74947 | 20996 ft | 465 kts | 104° |
| 2026-05-06 17:49 | 25.48856 | 53.78421 | 20998 ft | 465 kts | 104° |
| 2026-05-06 17:50 | 25.48100 | 53.81901 | 21005 ft | 465 kts | 104° |
| 2026-05-06 17:50 | 25.47343 | 53.85380 | 20992 ft | 465 kts | 104° |
| 2026-05-06 17:50 | 25.46594 | 53.88820 | 21002 ft | 465 kts | 104° |
| 2026-05-06 17:50 | 25.45828 | 53.92335 | 20990 ft | 465 kts | 104° |